Terminal Aerodrome Forecast
Issued by NWS Blacksburg, VA

Home | Current Version | Previous Version | Text Only | Print | Product List | Glossary On
Versions: 1 2 3 4 5 6 7 8 9 10 11 12 13 14 15 16 17 18 19 20 21 22 23 24 25 26
000
FTUS41 KRNK 272328
TAFDAN
TAF
KDAN 272328Z 2800/2824 18003KT P6SM BKN120
     FM280700 21003KT P6SM SCT050 OVC100
     FM281400 23005KT P6SM -RA SCT025 OVC035
     FM282000 25004KT 4SM -RA BR SCT007 OVC015=

USA.gov is the U.S. government's official web portal to all federal, state and local government web resources and services.